Flagstaff, Arizona
Current Conditions -  °F | °C
As of 6:57 AM on Monday 22 Dec 2014 (Local Time) from KFLG Reporting Station
Clear Clear  
Wind Chill: 38°   Ceiling: Unl
Heat Index: 41°   Visibility: 10mi
Dew Point: 31°   Wind: 5mph
Humidity: 67%   Direction: 280°W
Pressure: 30.09"   Gusts: NA
Location:  35.2°N, 111.65°W
Report Text: KFLG 221357Z 28004KT 10SM CLR 05/M01 A3009 RMK AO2 SLP147 T00501006 TSNO
Loading
Personal Weather Stations






























Interactive Weather Map New forecast layout! Learn more

10-Day Weather Forecast

Advertisements
Track Severe Weather on mobile